Terminal Aerodrome Forecast
Issued by NWS Twin Cities, MN

Home | Current Version | Previous Version | Text Only | Print | Product List | Glossary Off
Versions: 1 2 3 4 5 6 7 8 9 10 11 12 13 14

000
FTUS43 KMPX 241130
TAFEAU
TAF
KEAU 241130Z 2412/2512 36004KT P6SM SCT200
     FM241600 36011KT P6SM BKN120 OVC200
     FM242300 36013KT P6SM SCT200
     FM250200 01005KT P6SM FEW250=

USA.gov is the U.S. government's official web portal to all federal, state and local government web resources and services.